Shipolovi, Arizona
Current Conditions -  °F | °C
As of 8:56 AM on Thursday 18 Dec 2014 (Local Time) from KINW Reporting Station
Overcast Overcast  
Wind Chill: 26°   Ceiling: 11000
Heat Index: 32°   Visibility: 10mi
Dew Point: 30°   Wind: 6mph
Humidity: 92%   Direction: 110°ESE
Pressure: 30.14"   Gusts: NA
Location:  35.9162°N, 110.658°W
Report Text: KINW 181556Z AUTO 11005KT 10SM OVC110 00/M01 A3014 RMK AO2 SLP213 T00001011
Loading
Personal Weather Stations






























Interactive Weather Map New forecast layout! Learn more

10-Day Weather Forecast

Advertisements
Track Severe Weather on mobile